createdAt,value
2018-11-28T00:00:21.525Z,99.90
2018-11-28T00:02:50.418Z,99.90
2018-11-28T00:05:19.184Z,99.90
2018-11-28T00:07:47.748Z,99.90
2018-11-28T00:10:16.301Z,99.90
2018-11-28T00:12:44.895Z,99.90
2018-11-28T00:15:14.457Z,99.90
2018-11-28T00:17:43.053Z,99.90
2018-11-28T00:20:13.641Z,99.90
2018-11-28T00:22:42.565Z,99.90
2018-11-28T00:25:11.877Z,99.90
2018-11-28T00:27:40.537Z,99.90
2018-11-28T00:30:24.605Z,99.90
2018-11-28T00:32:53.191Z,99.90
2018-11-28T00:35:22.715Z,99.90
2018-11-28T00:37:51.309Z,99.90
2018-11-28T00:40:21.329Z,99.90
2018-11-28T00:42:49.909Z,99.90
2018-11-28T00:45:25.063Z,99.90
2018-11-28T00:47:53.678Z,99.90
2018-11-28T00:50:24.341Z,99.90
2018-11-28T00:52:52.921Z,99.90
2018-11-28T00:55:21.491Z,99.90
2018-11-28T00:57:50.073Z,99.90
2018-11-28T01:00:21.243Z,99.90
2018-11-28T01:02:50.279Z,99.90
2018-11-28T01:05:18.930Z,99.90
2018-11-28T01:07:49.242Z,99.90
2018-11-28T01:10:18.954Z,99.90
2018-11-28T01:12:48.213Z,99.90
2018-11-28T01:15:17.782Z,99.90
2018-11-28T01:17:46.473Z,99.90
2018-11-28T01:20:16.970Z,99.90
2018-11-28T01:22:45.516Z,99.90
2018-11-28T01:25:15.108Z,99.90
2018-11-28T01:27:43.712Z,99.90
2018-11-28T01:30:14.264Z,99.90
2018-11-28T01:32:42.935Z,99.90
2018-11-28T01:35:13.478Z,99.90
2018-11-28T01:37:42.285Z,99.90
2018-11-28T01:40:14.657Z,99.90
2018-11-28T01:42:43.189Z,99.90
2018-11-28T01:45:13.960Z,99.90
2018-11-28T01:47:42.913Z,99.90
2018-11-28T01:50:16.301Z,99.90
2018-11-28T01:52:44.889Z,99.90
2018-11-28T01:55:14.652Z,99.90
2018-11-28T01:57:43.251Z,99.90
2018-11-28T02:00:16.093Z,99.90
2018-11-28T02:02:44.685Z,99.90
2018-11-28T02:05:13.418Z,99.90
2018-11-28T02:07:41.975Z,99.90
2018-11-28T02:10:14.732Z,99.90
2018-11-28T02:12:43.249Z,99.90
2018-11-28T02:15:15.645Z,99.90
2018-11-28T02:17:44.220Z,99.90
2018-11-28T02:20:13.646Z,99.90
2018-11-28T02:22:42.256Z,99.90
2018-11-28T02:25:12.285Z,99.90
2018-11-28T02:27:40.868Z,99.90
2018-11-28T02:30:12.575Z,99.90
2018-11-28T02:32:41.150Z,99.90
2018-11-28T02:35:11.034Z,99.90
2018-11-28T02:37:39.696Z,99.90
2018-11-28T02:40:11.166Z,99.90
2018-11-28T02:42:39.808Z,99.90
2018-11-28T02:45:13.044Z,99.90
2018-11-28T02:47:41.713Z,99.90
2018-11-28T02:50:10.357Z,99.90
2018-11-28T02:52:39.013Z,99.90
2018-11-28T02:55:10.161Z,99.90
2018-11-28T02:57:39.402Z,99.90
2018-11-28T03:00:11.748Z,99.90
2018-11-28T03:02:40.365Z,99.90
2018-11-28T03:05:10.468Z,99.90
2018-11-28T03:07:39.097Z,99.90
2018-11-28T03:10:10.065Z,99.90
2018-11-28T03:12:38.701Z,99.90
2018-11-28T03:15:10.205Z,99.90
2018-11-28T03:17:38.785Z,99.90
2018-11-28T03:20:08.984Z,99.90
2018-11-28T03:22:37.571Z,99.90
2018-11-28T03:25:07.719Z,99.90
2018-11-28T03:27:36.869Z,99.90
2018-11-28T03:30:13.582Z,99.90
2018-11-28T03:32:42.190Z,99.90
2018-11-28T03:35:13.721Z,99.90
2018-11-28T03:37:42.347Z,99.90
2018-11-28T03:40:11.074Z,99.90
2018-11-28T03:42:39.709Z,99.90
2018-11-28T03:45:11.676Z,99.90
2018-11-28T03:47:40.330Z,99.90
2018-11-28T03:50:10.242Z,99.90
2018-11-28T03:52:39.611Z,99.90
2018-11-28T03:55:09.933Z,99.90
2018-11-28T03:57:38.469Z,99.90
2018-11-28T04:00:12.435Z,99.90
2018-11-28T04:02:40.970Z,99.90
2018-11-28T04:05:09.666Z,99.90
2018-11-28T04:07:38.249Z,99.90
2018-11-28T04:10:09.316Z,99.90
2018-11-28T04:12:38.281Z,99.90
2018-11-28T04:15:10.756Z,99.90
2018-11-28T04:17:39.281Z,99.90
2018-11-28T04:20:10.086Z,99.90
2018-11-28T04:22:38.669Z,99.90
2018-11-28T04:25:08.573Z,99.90
2018-11-28T04:27:37.240Z,99.90
2018-11-28T04:30:12.224Z,99.90
2018-11-28T04:32:40.797Z,99.90
2018-11-28T04:35:11.682Z,99.90
2018-11-28T04:37:40.358Z,99.90
2018-11-28T04:40:11.024Z,99.90
2018-11-28T04:42:39.749Z,99.90
2018-11-28T04:45:11.724Z,99.90
2018-11-28T04:47:40.375Z,99.90
2018-11-28T04:50:10.018Z,99.90
2018-11-28T04:52:38.766Z,99.90
2018-11-28T04:55:10.113Z,99.90
2018-11-28T04:57:38.688Z,99.90
2018-11-28T05:00:11.109Z,99.90
2018-11-28T05:02:39.731Z,99.90
2018-11-28T05:05:08.922Z,99.90
2018-11-28T05:07:37.502Z,99.90
2018-11-28T05:10:08.841Z,99.90
2018-11-28T05:12:37.454Z,99.90
2018-11-28T05:15:08.596Z,99.90
2018-11-28T05:17:37.201Z,99.90
2018-11-28T05:20:08.039Z,99.90
2018-11-28T05:22:36.586Z,99.90
2018-11-28T05:25:06.365Z,99.90
2018-11-28T05:27:34.925Z,99.90
2018-11-28T05:30:03.658Z,99.90
2018-11-28T05:32:32.177Z,99.90
2018-11-28T05:35:00.787Z,99.90
2018-11-28T05:37:29.333Z,99.90
2018-11-28T05:39:57.887Z,99.90
2018-11-28T05:42:26.403Z,99.90
2018-11-28T05:44:54.966Z,99.90
2018-11-28T05:47:23.530Z,99.90
2018-11-28T05:49:52.101Z,99.90
2018-11-28T05:52:20.623Z,99.90
2018-11-28T05:54:49.218Z,99.90
2018-11-28T05:57:17.894Z,99.90
2018-11-28T05:59:46.522Z,99.90
2018-11-28T06:02:15.168Z,99.90
2018-11-28T06:04:43.769Z,99.90
2018-11-28T06:07:12.288Z,99.90
2018-11-28T06:09:41.518Z,99.90
2018-11-28T06:12:10.121Z,99.90
2018-11-28T06:14:38.734Z,99.90
2018-11-28T06:17:07.316Z,99.90
2018-11-28T06:19:35.925Z,99.90
2018-11-28T06:22:04.563Z,99.90
2018-11-28T06:24:33.301Z,99.90
2018-11-28T06:27:02.957Z,99.90
2018-11-28T06:29:31.538Z,99.90
2018-11-28T06:32:00.125Z,99.90
2018-11-28T06:34:28.765Z,99.90
2018-11-28T06:36:57.466Z,99.90
2018-11-28T06:39:26.515Z,99.90
2018-11-28T06:41:55.990Z,99.90
2018-11-28T06:44:25.003Z,99.90
2018-11-28T06:46:53.745Z,99.90
2018-11-28T06:49:22.437Z,99.90
2018-11-28T06:51:51.177Z,99.90
2018-11-28T06:54:19.955Z,99.90
2018-11-28T06:56:48.634Z,99.90
2018-11-28T06:59:17.367Z,99.90
2018-11-28T07:01:46.000Z,99.90
2018-11-28T07:04:14.537Z,99.90
2018-11-28T07:06:43.158Z,99.90
2018-11-28T07:09:11.709Z,99.90
2018-11-28T07:11:40.219Z,99.90
2018-11-28T07:14:08.762Z,99.90
2018-11-28T07:16:37.299Z,99.90
2018-11-28T07:19:10.177Z,99.90
2018-11-28T07:21:38.741Z,99.90
2018-11-28T07:24:08.000Z,99.90
2018-11-28T07:26:36.534Z,99.90
2018-11-28T07:29:05.561Z,99.90
2018-11-28T07:31:34.080Z,99.90
2018-11-28T07:34:02.645Z,99.90
2018-11-28T07:36:31.181Z,99.90
2018-11-28T07:38:59.736Z,99.90
2018-11-28T07:41:28.571Z,99.90
2018-11-28T07:43:57.201Z,99.90
2018-11-28T07:46:25.897Z,99.90
2018-11-28T07:48:54.465Z,99.90
2018-11-28T07:51:23.040Z,99.90
2018-11-28T07:53:51.605Z,99.90
2018-11-28T07:56:20.123Z,99.90
2018-11-28T07:58:48.734Z,99.90
2018-11-28T08:01:17.256Z,99.90
2018-11-28T08:03:45.836Z,99.90
2018-11-28T08:06:14.385Z,99.90
2018-11-28T08:08:42.965Z,99.90
2018-11-28T08:11:11.545Z,99.90
2018-11-28T08:13:40.169Z,99.90
2018-11-28T08:16:08.754Z,99.90
2018-11-28T08:18:37.308Z,99.90
2018-11-28T08:21:06.551Z,99.90
2018-11-28T08:23:35.062Z,99.90
2018-11-28T08:26:03.680Z,99.90
2018-11-28T08:28:32.224Z,99.90
2018-11-28T08:31:00.786Z,99.90
2018-11-28T08:33:29.309Z,99.90
2018-11-28T08:35:57.949Z,99.90
2018-11-28T08:38:26.463Z,99.90
2018-11-28T08:40:55.217Z,99.90
2018-11-28T08:43:23.758Z,99.90
2018-11-28T08:45:52.430Z,99.90
2018-11-28T08:48:20.956Z,99.90
2018-11-28T08:50:49.774Z,99.90
2018-11-28T08:53:18.312Z,99.90
2018-11-28T08:55:46.915Z,99.90
2018-11-28T08:58:15.447Z,99.90
2018-11-28T09:00:44.046Z,99.90
2018-11-28T09:03:12.590Z,99.90
2018-11-28T09:05:41.163Z,99.90
2018-11-28T09:08:09.657Z,99.90
2018-11-28T09:10:38.208Z,99.90
2018-11-28T09:13:07.008Z,99.90
2018-11-28T09:15:35.567Z,99.90
2018-11-28T09:18:04.106Z,99.90
2018-11-28T09:20:33.815Z,99.90
2018-11-28T09:23:01.193Z,99.90
2018-11-28T09:25:29.777Z,99.90
2018-11-28T09:27:59.247Z,99.90
2018-11-28T09:30:27.836Z,99.90
2018-11-28T09:32:56.419Z,99.90
2018-11-28T09:35:25.041Z,99.90
2018-11-28T09:37:53.569Z,99.90
2018-11-28T09:40:25.009Z,99.60
2018-11-28T09:42:54.641Z,99.20
2018-11-28T09:45:23.253Z,99.00
2018-11-28T09:47:51.859Z,98.60
2018-11-28T09:50:21.444Z,99.00
2018-11-28T09:52:50.041Z,98.50
2018-11-28T09:55:21.501Z,95.80
2018-11-28T09:57:50.066Z,97.60
2018-11-28T10:00:19.725Z,98.00
2018-11-28T10:02:48.914Z,96.60
2018-11-28T10:05:21.779Z,97.50
2018-11-28T10:07:50.414Z,97.50
2018-11-28T10:10:19.045Z,97.30
2018-11-28T10:12:47.628Z,97.30
2018-11-28T10:15:17.236Z,97.60
2018-11-28T10:17:46.064Z,96.60
2018-11-28T10:20:17.942Z,97.70
2018-11-28T10:22:47.058Z,96.40
2018-11-28T10:25:19.434Z,95.90
2018-11-28T10:27:49.308Z,96.10
2018-11-28T10:30:24.857Z,95.00
2018-11-28T10:32:54.060Z,96.60
2018-11-28T10:35:22.607Z,95.40
2018-11-28T10:37:51.208Z,95.90
2018-11-28T10:40:20.873Z,97.00
2018-11-28T10:42:54.205Z,97.10
2018-11-28T10:45:23.874Z,97.10
2018-11-28T10:47:52.512Z,96.40
2018-11-28T10:50:21.091Z,95.80
2018-11-28T10:52:49.681Z,96.20
2018-11-28T10:55:21.201Z,97.60
2018-11-28T10:57:49.896Z,96.70
2018-11-28T11:00:35.917Z,96.90
2018-11-28T11:03:11.092Z,97.60
2018-11-28T11:05:44.999Z,97.70
2018-11-28T11:08:18.781Z,97.50
2018-11-28T11:10:52.708Z,97.40
2018-11-28T11:13:26.624Z,98.10
2018-11-28T11:15:55.334Z,97.40
2018-11-28T11:18:24.075Z,97.70
2018-11-28T11:20:52.699Z,96.60
2018-11-28T11:23:21.425Z,96.70
2018-11-28T11:25:50.122Z,95.70
2018-11-28T11:28:18.858Z,96.10
2018-11-28T11:30:47.449Z,97.40
2018-11-28T11:33:16.122Z,97.00
2018-11-28T11:35:44.710Z,96.40
2018-11-28T11:38:13.339Z,96.80
2018-11-28T11:40:41.875Z,95.70
2018-11-28T11:43:10.823Z,95.30
2018-11-28T11:45:39.739Z,94.70
2018-11-28T11:48:08.054Z,95.50
2018-11-28T11:50:36.708Z,95.50
2018-11-28T11:53:06.145Z,96.40
2018-11-28T11:55:35.566Z,95.10
2018-11-28T11:58:04.285Z,96.10
2018-11-28T12:00:33.411Z,95.10
2018-11-28T12:03:05.861Z,94.80
2018-11-28T12:05:34.555Z,94.00
2018-11-28T12:08:03.307Z,94.70
2018-11-28T12:10:32.046Z,95.00
2018-11-28T12:13:00.752Z,96.10
2018-11-28T12:15:29.506Z,96.30
2018-11-28T12:17:58.150Z,95.40
2018-11-28T12:20:28.776Z,95.90
2018-11-28T12:22:57.369Z,97.10
2018-11-28T12:25:25.945Z,96.30
2018-11-28T12:27:54.462Z,97.70
2018-11-28T12:30:23.066Z,98.30
2018-11-28T12:32:51.608Z,97.60
2018-11-28T12:35:20.385Z,98.60
2018-11-28T12:37:48.897Z,98.60
2018-11-28T12:40:17.848Z,98.20
2018-11-28T12:42:50.085Z,99.10
2018-11-28T12:45:19.585Z,98.30
2018-11-28T12:47:48.693Z,99.90
2018-11-28T12:50:21.846Z,98.80
2018-11-28T12:52:50.861Z,99.60
2018-11-28T12:55:20.014Z,99.20
2018-11-28T12:57:48.609Z,96.20
2018-11-28T13:00:18.720Z,96.20
2018-11-28T13:02:47.345Z,96.00
2018-11-28T13:05:20.915Z,95.70
2018-11-28T13:07:49.557Z,96.10
2018-11-28T13:10:28.511Z,96.90
2018-11-28T13:12:57.249Z,97.90
2018-11-28T13:15:26.597Z,96.80
2018-11-28T13:17:55.163Z,95.70
2018-11-28T13:20:23.864Z,95.50
2018-11-28T13:22:54.489Z,96.40
2018-11-28T13:25:26.197Z,96.30
2018-11-28T13:27:54.921Z,96.40
2018-11-28T13:30:24.500Z,96.30
2018-11-28T13:32:53.883Z,95.40
2018-11-28T13:35:27.473Z,95.30
2018-11-28T13:38:01.755Z,95.80
2018-11-28T13:40:30.390Z,96.00
2018-11-28T13:42:58.901Z,96.70
2018-11-28T13:45:31.798Z,98.20
2018-11-28T13:48:00.394Z,99.30
2018-11-28T13:50:29.032Z,99.20
2018-11-28T13:52:58.573Z,99.80
2018-11-28T13:58:31.731Z,97.90
2018-11-28T14:01:00.430Z,97.60
2018-11-28T14:03:29.016Z,97.10
2018-11-28T14:05:57.601Z,96.70
2018-11-28T14:08:26.168Z,97.10
2018-11-28T14:10:54.732Z,95.90
2018-11-28T14:13:23.316Z,96.80
2018-11-28T14:15:51.866Z,98.20
2018-11-28T14:18:20.682Z,98.40
2018-11-28T14:20:49.334Z,99.00
2018-11-28T14:23:17.938Z,98.10
2018-11-28T14:25:46.546Z,98.20
2018-11-28T14:28:15.182Z,97.90
2018-11-28T14:30:44.471Z,97.80
2018-11-28T14:33:13.071Z,98.90
2018-11-28T14:35:41.682Z,98.60
2018-11-28T14:38:10.264Z,98.00
2018-11-28T14:40:38.792Z,98.60
2018-11-28T14:43:07.953Z,98.20
2018-11-28T14:45:36.970Z,98.30
2018-11-28T14:48:05.721Z,99.00
2018-11-28T14:50:34.356Z,99.20
2018-11-28T14:53:03.439Z,99.90
2018-11-28T14:55:35.377Z,98.90
2018-11-28T14:58:05.044Z,99.90
2018-11-28T15:00:33.717Z,99.90
2018-11-28T15:03:13.402Z,99.90
2018-11-28T15:07:54.943Z,99.40
2018-11-28T15:10:52.230Z,99.90
2018-11-28T15:13:20.843Z,99.90
2018-11-28T15:15:49.409Z,99.90
2018-11-28T15:18:18.039Z,99.90
2018-11-28T15:20:46.630Z,99.90
2018-11-28T15:23:15.217Z,99.90
2018-11-28T15:25:43.836Z,99.90
2018-11-28T15:28:12.362Z,99.90
2018-11-28T15:30:41.056Z,99.90
2018-11-28T15:33:09.646Z,99.90
2018-11-28T15:35:39.955Z,99.90
2018-11-28T15:38:08.982Z,99.90
2018-11-28T15:40:37.597Z,99.90
2018-11-28T15:43:06.298Z,99.90
2018-11-28T15:45:34.870Z,99.90
2018-11-28T15:48:05.926Z,99.90
2018-11-28T15:50:34.538Z,99.90
2018-11-28T15:53:03.070Z,99.90
2018-11-28T15:55:32.349Z,99.90
2018-11-28T15:58:00.871Z,99.90
2018-11-28T16:00:29.539Z,99.90
2018-11-28T16:02:58.148Z,99.90
2018-11-28T16:05:26.813Z,99.90
2018-11-28T16:07:55.379Z,99.90
2018-11-28T16:10:29.162Z,99.90
2018-11-28T16:12:57.754Z,99.90
2018-11-28T16:15:28.938Z,99.90
2018-11-28T16:17:57.513Z,99.90
2018-11-28T16:20:26.159Z,99.90
2018-11-28T16:22:54.714Z,99.90
2018-11-28T16:25:23.956Z,99.90
2018-11-28T16:27:52.529Z,99.90
2018-11-28T16:30:21.140Z,99.90
2018-11-28T16:32:49.699Z,99.90
2018-11-28T16:35:18.618Z,99.90
2018-11-28T16:37:47.166Z,99.90
2018-11-28T16:40:16.476Z,99.90
2018-11-28T16:42:45.046Z,99.90
2018-11-28T16:45:16.486Z,99.90
2018-11-28T16:47:45.234Z,99.90
2018-11-28T16:50:14.526Z,99.90
2018-11-28T16:52:43.206Z,99.90
2018-11-28T16:55:13.749Z,99.90
2018-11-28T16:57:43.760Z,99.90
2018-11-28T17:00:15.490Z,99.90
2018-11-28T17:02:44.146Z,99.90
2018-11-28T17:05:15.661Z,99.90
2018-11-28T17:07:44.270Z,99.90
2018-11-28T17:10:15.952Z,99.90
2018-11-28T17:12:45.541Z,99.90
2018-11-28T17:15:16.071Z,99.90
2018-11-28T17:17:44.787Z,99.90
2018-11-28T17:20:17.393Z,99.90
2018-11-28T17:22:46.234Z,99.90
2018-11-28T17:25:18.693Z,99.90
2018-11-28T17:27:47.290Z,99.90
2018-11-28T17:30:19.015Z,99.90
2018-11-28T17:32:46.601Z,99.90
2018-11-28T17:35:15.225Z,99.90
2018-11-28T17:37:43.809Z,99.90
2018-11-28T17:40:13.701Z,99.90
2018-11-28T17:42:42.834Z,99.90
2018-11-28T17:45:13.365Z,99.90
2018-11-28T17:47:42.080Z,99.90
2018-11-28T17:50:13.933Z,99.90
2018-11-28T17:53:14.272Z,99.90
2018-11-28T17:55:49.385Z,99.90
2018-11-28T17:58:17.976Z,99.90
2018-11-28T18:00:46.583Z,99.90
2018-11-28T18:03:15.221Z,99.90
2018-11-28T18:05:43.842Z,99.90
2018-11-28T18:08:12.447Z,99.90
2018-11-28T18:10:41.051Z,99.90
2018-11-28T18:13:12.581Z,99.90
2018-11-28T18:15:42.475Z,99.90
2018-11-28T18:18:12.246Z,99.90
2018-11-28T18:20:40.850Z,99.90
2018-11-28T18:23:10.241Z,99.90
2018-11-28T18:25:39.749Z,99.90
2018-11-28T18:28:09.029Z,99.90
2018-11-28T18:30:38.229Z,99.90
2018-11-28T18:33:07.727Z,99.90
2018-11-28T18:35:36.422Z,99.90
2018-11-28T18:38:05.071Z,99.90
2018-11-28T18:40:33.677Z,99.90
2018-11-28T18:43:02.285Z,99.90
2018-11-28T18:45:32.785Z,99.90
2018-11-28T18:48:01.386Z,99.90
2018-11-28T18:50:29.984Z,99.90
2018-11-28T18:52:58.548Z,99.90
2018-11-28T18:55:27.146Z,99.90
2018-11-28T18:57:56.621Z,99.90
2018-11-28T19:00:27.232Z,99.90
2018-11-28T19:02:56.375Z,99.90
2018-11-28T19:05:25.038Z,99.90
2018-11-28T19:07:53.671Z,99.90
2018-11-28T19:10:26.546Z,99.90
2018-11-28T19:12:54.158Z,99.90
2018-11-28T19:15:23.929Z,99.90
2018-11-28T19:17:52.684Z,99.90
2018-11-28T19:20:21.933Z,99.90
2018-11-28T19:22:51.199Z,99.90
2018-11-28T19:25:22.731Z,99.90
2018-11-28T19:27:51.332Z,99.90
2018-11-28T19:30:30.947Z,99.90
2018-11-28T19:32:55.648Z,99.90
2018-11-28T19:35:24.233Z,99.90
2018-11-28T19:37:52.926Z,99.90
2018-11-28T19:40:25.790Z,99.90
2018-11-28T19:42:54.442Z,99.90
2018-11-28T19:45:23.104Z,99.90
2018-11-28T19:47:51.746Z,99.90
2018-11-28T19:50:26.752Z,99.90
2018-11-28T19:52:55.336Z,99.90
2018-11-28T19:55:23.860Z,99.90
2018-11-28T19:57:52.452Z,99.90
2018-11-28T20:00:21.034Z,99.90
2018-11-28T20:02:49.693Z,99.90
2018-11-28T20:05:18.280Z,99.90
2018-11-28T20:07:48.830Z,99.90
2018-11-28T20:10:18.717Z,99.90
2018-11-28T20:12:47.302Z,99.90
2018-11-28T20:15:18.132Z,99.90
2018-11-28T20:17:46.725Z,99.90
2018-11-28T20:20:16.090Z,99.90
2018-11-28T20:22:44.750Z,99.90
2018-11-28T20:25:15.410Z,99.90
2018-11-28T20:27:46.244Z,99.90
2018-11-28T20:30:20.202Z,99.90
2018-11-28T20:32:48.829Z,99.90
2018-11-28T20:35:17.359Z,99.90
2018-11-28T20:37:46.058Z,99.90
2018-11-28T20:40:16.725Z,99.90
2018-11-28T20:42:46.649Z,99.90
2018-11-28T20:45:15.320Z,99.90
2018-11-28T20:47:43.914Z,99.90
2018-11-28T20:50:17.192Z,99.90
2018-11-28T20:52:47.471Z,99.90
2018-11-28T20:55:16.064Z,99.90
2018-11-28T20:57:44.590Z,99.90
2018-11-28T21:00:17.428Z,99.90
2018-11-28T21:02:45.982Z,99.90
2018-11-28T21:05:14.655Z,99.90
2018-11-28T21:07:43.182Z,99.90
2018-11-28T21:10:19.090Z,99.90
2018-11-28T21:12:47.652Z,99.90
2018-11-28T21:15:16.195Z,99.90
2018-11-28T21:17:45.404Z,99.90
2018-11-28T21:20:18.784Z,99.90
2018-11-28T21:22:53.711Z,99.90
2018-11-28T21:25:22.264Z,99.90
2018-11-28T21:27:50.799Z,99.90
2018-11-28T21:30:20.389Z,99.90
2018-11-28T21:32:50.020Z,99.90
2018-11-28T21:35:22.050Z,99.90
2018-11-28T21:37:50.607Z,99.90
2018-11-28T21:40:19.256Z,99.90
2018-11-28T21:42:47.800Z,99.90
2018-11-28T21:45:17.306Z,99.90
2018-11-28T21:47:45.910Z,99.90
2018-11-28T21:50:16.408Z,99.90
2018-11-28T21:52:45.045Z,99.90
2018-11-28T21:55:14.880Z,99.90
2018-11-28T21:57:43.521Z,99.90
2018-11-28T22:00:19.616Z,99.90
2018-11-28T22:02:48.224Z,99.90
2018-11-28T22:05:17.259Z,99.90
2018-11-28T22:07:46.748Z,99.90
2018-11-28T22:10:17.107Z,99.90
2018-11-28T22:12:45.866Z,99.90
2018-11-28T22:15:18.208Z,99.90
2018-11-28T22:17:51.973Z,99.90
2018-11-28T22:20:20.584Z,99.90
2018-11-28T22:22:49.184Z,99.90
2018-11-28T22:25:19.666Z,99.90
2018-11-28T22:27:48.284Z,99.90
2018-11-28T22:30:19.910Z,99.90
2018-11-28T22:32:48.495Z,99.90
2018-11-28T22:35:17.090Z,99.90
2018-11-28T22:37:45.617Z,99.90
2018-11-28T22:40:30.015Z,99.90
2018-11-28T22:42:58.609Z,99.90
2018-11-28T22:45:29.420Z,99.90
2018-11-28T22:47:58.091Z,99.90
2018-11-28T22:50:26.689Z,99.90
2018-11-28T22:52:55.223Z,99.90
2018-11-28T22:55:23.761Z,99.90
2018-11-28T22:57:52.289Z,99.90
2018-11-28T23:00:29.372Z,99.90
2018-11-28T23:03:02.101Z,99.90
2018-11-28T23:05:34.608Z,99.90
2018-11-28T23:08:04.236Z,99.90
2018-11-28T23:10:32.835Z,99.90
2018-11-28T23:13:01.344Z,99.90
2018-11-28T23:15:29.883Z,99.90
2018-11-28T23:17:58.410Z,99.90
2018-11-28T23:20:27.002Z,99.90
2018-11-28T23:22:55.570Z,99.90
2018-11-28T23:25:24.160Z,99.90
2018-11-28T23:27:52.729Z,99.90
2018-11-28T23:30:22.181Z,99.90
2018-11-28T23:32:51.437Z,99.90
2018-11-28T23:35:20.014Z,99.90
2018-11-28T23:37:49.326Z,99.90
2018-11-28T23:40:19.899Z,99.90
2018-11-28T23:42:48.646Z,99.90
2018-11-28T23:45:17.381Z,99.90
2018-11-28T23:47:45.991Z,99.90
2018-11-28T23:50:17.410Z,99.90
2018-11-28T23:52:46.385Z,99.90
2018-11-28T23:55:32.106Z,99.90
2018-11-28T23:58:00.621Z,99.90
